sensor_id;sensor_type;location;lat;lon;timestamp;temperature;humidity
6536;DHT22;34330;52.08032700;5.40923460;2022-08-04T00:00:18;26.80;64.30
6536;DHT22;34330;52.08032700;5.40923460;2022-08-04T00:02:58;26.80;64.80
6536;DHT22;34330;52.08032700;5.40923460;2022-08-04T00:05:32;26.70;65.40
6536;DHT22;34330;52.08032700;5.40923460;2022-08-04T00:08:13;26.60;65.20
6536;DHT22;34330;52.08032700;5.40923460;2022-08-04T00:10:49;26.60;65.20
6536;DHT22;34330;52.08032700;5.40923460;2022-08-04T00:13:21;26.50;65.20
6536;DHT22;34330;52.08032700;5.40923460;2022-08-04T00:15:52;26.50;65.20
6536;DHT22;34330;52.08032700;5.40923460;2022-08-04T00:18:25;26.50;65.20
6536;DHT22;34330;52.08032700;5.40923460;2022-08-04T00:20:57;26.50;65.30
6536;DHT22;34330;52.08032700;5.40923460;2022-08-04T00:23:28;26.40;65.30
6536;DHT22;34330;52.08032700;5.40923460;2022-08-04T00:26:19;25.50;64.60
6536;DHT22;34330;52.08032700;5.40923460;2022-08-04T00:28:48;26.30;65.40
6536;DHT22;34330;52.08032700;5.40923460;2022-08-04T00:31:16;26.30;65.30
6536;DHT22;34330;52.08032700;5.40923460;2022-08-04T00:36:33;26.20;65.60
6536;DHT22;34330;52.08032700;5.40923460;2022-08-04T00:39:02;26.10;67.20
6536;DHT22;34330;52.08032700;5.40923460;2022-08-04T00:41:38;26.00;67.00
6536;DHT22;34330;52.08032700;5.40923460;2022-08-04T00:44:29;25.90;68.30
6536;DHT22;34330;52.08032700;5.40923460;2022-08-04T00:47:22;25.90;67.90
6536;DHT22;34330;52.08032700;5.40923460;2022-08-04T00:50:08;25.90;67.30
6536;DHT22;34330;52.08032700;5.40923460;2022-08-04T00:55:45;25.90;66.80
6536;DHT22;34330;52.08032700;5.40923460;2022-08-04T00:58:26;25.90;66.70
6536;DHT22;34330;52.08032700;5.40923460;2022-08-04T01:00:59;25.90;66.80
6536;DHT22;34330;52.08032700;5.40923460;2022-08-04T01:03:49;25.90;66.90
6536;DHT22;34330;52.08032700;5.40923460;2022-08-04T01:06:28;25.80;66.90
6536;DHT22;34330;52.08032700;5.40923460;2022-08-04T01:09:15;25.70;66.90
6536;DHT22;34330;52.08032700;5.40923460;2022-08-04T01:12:07;25.70;67.00
6536;DHT22;34330;52.08032700;5.40923460;2022-08-04T01:14:53;25.70;66.90
6536;DHT22;34330;52.08032700;5.40923460;2022-08-04T01:17:24;25.60;68.10
6536;DHT22;34330;52.08032700;5.40923460;2022-08-04T01:20:03;25.50;68.10
6536;DHT22;34330;52.08032700;5.40923460;2022-08-04T01:26:01;25.30;68.80
6536;DHT22;34330;52.08032700;5.40923460;2022-08-04T01:29:03;25.40;68.40
6536;DHT22;34330;52.08032700;5.40923460;2022-08-04T01:31:49;26.50;68.80
6536;DHT22;34330;52.08032700;5.40923460;2022-08-04T01:34:19;25.40;68.10
6536;DHT22;34330;52.08032700;5.40923460;2022-08-04T01:36:56;25.30;68.10
6536;DHT22;34330;52.08032700;5.40923460;2022-08-04T01:39:30;25.40;68.00
6536;DHT22;34330;52.08032700;5.40923460;2022-08-04T01:42:10;25.30;68.00
6536;DHT22;34330;52.08032700;5.40923460;2022-08-04T01:45:00;25.30;68.10
6536;DHT22;34330;52.08032700;5.40923460;2022-08-04T01:47:29;25.30;68.00
6536;DHT22;34330;52.08032700;5.40923460;2022-08-04T01:50:06;25.20;68.00
6536;DHT22;34330;52.08032700;5.40923460;2022-08-04T01:52:35;25.20;68.10
6536;DHT22;34330;52.08032700;5.40923460;2022-08-04T01:55:05;25.20;68.80
6536;DHT22;34330;52.08032700;5.40923460;2022-08-04T01:57:36;25.10;69.00
6536;DHT22;34330;52.08032700;5.40923460;2022-08-04T02:00:13;25.10;69.60
6536;DHT22;34330;52.08032700;5.40923460;2022-08-04T02:02:43;25.00;69.60
6536;DHT22;34330;52.08032700;5.40923460;2022-08-04T02:05:14;25.00;69.40
6536;DHT22;34330;52.08032700;5.40923460;2022-08-04T02:07:56;24.90;69.30
6536;DHT22;34330;52.08032700;5.40923460;2022-08-04T02:10:29;24.90;69.30
6536;DHT22;34330;52.08032700;5.40923460;2022-08-04T02:13:11;25.00;69.40
6536;DHT22;34330;52.08032700;5.40923460;2022-08-04T02:15:49;24.90;69.40
6536;DHT22;34330;52.08032700;5.40923460;2022-08-04T02:18:23;24.90;69.50
6536;DHT22;34330;52.08032700;5.40923460;2022-08-04T02:20:56;24.90;69.50
6536;DHT22;34330;52.08032700;5.40923460;2022-08-04T02:23:29;24.90;69.60
6536;DHT22;34330;52.08032700;5.40923460;2022-08-04T02:26:02;24.90;69.70
6536;DHT22;34330;52.08032700;5.40923460;2022-08-04T02:28:38;24.80;69.70
6536;DHT22;34330;52.08032700;5.40923460;2022-08-04T02:31:17;24.80;69.70
6536;DHT22;34330;52.08032700;5.40923460;2022-08-04T02:33:50;24.80;69.80
6536;DHT22;34330;52.08032700;5.40923460;2022-08-04T02:36:27;24.70;71.00
6536;DHT22;34330;52.08032700;5.40923460;2022-08-04T02:38:59;24.60;70.80
6536;DHT22;34330;52.08032700;5.40923460;2022-08-04T02:41:29;24.60;71.90
6536;DHT22;34330;52.08032700;5.40923460;2022-08-04T02:43:59;24.60;72.40
6536;DHT22;34330;52.08032700;5.40923460;2022-08-04T02:46:30;24.60;72.20
6536;DHT22;34330;52.08032700;5.40923460;2022-08-04T02:49:02;24.70;72.10
6536;DHT22;34330;52.08032700;5.40923460;2022-08-04T02:51:33;24.70;70.90
6536;DHT22;34330;52.08032700;5.40923460;2022-08-04T02:54:03;24.60;71.70
6536;DHT22;34330;52.08032700;5.40923460;2022-08-04T02:56:33;24.60;70.80
6536;DHT22;34330;52.08032700;5.40923460;2022-08-04T02:59:05;24.60;70.60
6536;DHT22;34330;52.08032700;5.40923460;2022-08-04T03:01:35;24.60;71.60
6536;DHT22;34330;52.08032700;5.40923460;2022-08-04T03:04:41;24.60;71.70
6536;DHT22;34330;52.08032700;5.40923460;2022-08-04T03:07:28;24.60;70.60
6536;DHT22;34330;52.08032700;5.40923460;2022-08-04T03:10:40;24.50;70.80
6536;DHT22;34330;52.08032700;5.40923460;2022-08-04T03:13:29;24.50;70.80
6536;DHT22;34330;52.08032700;5.40923460;2022-08-04T03:16:17;28.10;74.90
6536;DHT22;34330;52.08032700;5.40923460;2022-08-04T03:19:22;24.30;72.50
6536;DHT22;34330;52.08032700;5.40923460;2022-08-04T03:25:21;24.90;74.50
6536;DHT22;34330;52.08032700;5.40923460;2022-08-04T03:28:25;24.30;73.40
6536;DHT22;34330;52.08032700;5.40923460;2022-08-04T03:31:23;24.30;71.70
6536;DHT22;34330;52.08032700;5.40923460;2022-08-04T03:34:06;25.60;74.20
6536;DHT22;34330;52.08032700;5.40923460;2022-08-04T03:39:54;24.30;71.60
6536;DHT22;34330;52.08032700;5.40923460;2022-08-04T03:43:09;24.30;71.80
6536;DHT22;34330;52.08032700;5.40923460;2022-08-04T03:46:21;24.30;73.00
6536;DHT22;34330;52.08032700;5.40923460;2022-08-04T03:49:19;24.30;72.90
6536;DHT22;34330;52.08032700;5.40923460;2022-08-04T03:52:05;24.20;73.30
6536;DHT22;34330;52.08032700;5.40923460;2022-08-04T03:55:27;25.40;74.20
6536;DHT22;34330;52.08032700;5.40923460;2022-08-04T03:58:36;24.20;71.90
6536;DHT22;34330;52.08032700;5.40923460;2022-08-04T04:04:38;23.90;74.30
6536;DHT22;34330;52.08032700;5.40923460;2022-08-04T04:10:46;23.90;73.50
6536;DHT22;34330;52.08032700;5.40923460;2022-08-04T04:13:33;24.00;73.50
6536;DHT22;34330;52.08032700;5.40923460;2022-08-04T04:16:25;26.30;76.70
6536;DHT22;34330;52.08032700;5.40923460;2022-08-04T04:19:22;24.00;73.40
6536;DHT22;34330;52.08032700;5.40923460;2022-08-04T04:22:21;24.00;73.30
6536;DHT22;34330;52.08032700;5.40923460;2022-08-04T04:25:03;24.00;73.40
6536;DHT22;34330;52.08032700;5.40923460;2022-08-04T04:27:42;24.00;73.30
6536;DHT22;34330;52.08032700;5.40923460;2022-08-04T04:30:18;24.00;74.40
6536;DHT22;34330;52.08032700;5.40923460;2022-08-04T04:33:23;24.00;74.20
6536;DHT22;34330;52.08032700;5.40923460;2022-08-04T04:36:02;24.00;74.80
6536;DHT22;34330;52.08032700;5.40923460;2022-08-04T04:39:05;24.00;74.50
6536;DHT22;34330;52.08032700;5.40923460;2022-08-04T04:41:52;23.90;74.90
6536;DHT22;34330;52.08032700;5.40923460;2022-08-04T04:45:05;24.00;75.00
6536;DHT22;34330;52.08032700;5.40923460;2022-08-04T04:47:49;23.90;75.50
6536;DHT22;34330;52.08032700;5.40923460;2022-08-04T04:50:48;23.90;75.20
6536;DHT22;34330;52.08032700;5.40923460;2022-08-04T04:53:26;24.00;75.00
6536;DHT22;34330;52.08032700;5.40923460;2022-08-04T04:55:59;24.00;75.90
6536;DHT22;34330;52.08032700;5.40923460;2022-08-04T04:58:33;24.00;75.60
6536;DHT22;34330;52.08032700;5.40923460;2022-08-04T05:01:15;24.10;75.50
6536;DHT22;34330;52.08032700;5.40923460;2022-08-04T05:04:12;24.10;75.80
6536;DHT22;34330;52.08032700;5.40923460;2022-08-04T05:06:53;24.10;74.40
6536;DHT22;34330;52.08032700;5.40923460;2022-08-04T05:09:35;24.10;74.60
6536;DHT22;34330;52.08032700;5.40923460;2022-08-04T05:12:19;24.10;75.50
6536;DHT22;34330;52.08032700;5.40923460;2022-08-04T05:15:11;24.10;74.60
6536;DHT22;34330;52.08032700;5.40923460;2022-08-04T05:17:42;27.40;78.20
6536;DHT22;34330;52.08032700;5.40923460;2022-08-04T05:20:15;24.90;76.40
6536;DHT22;34330;52.08032700;5.40923460;2022-08-04T05:22:52;24.10;75.60
6536;DHT22;34330;52.08032700;5.40923460;2022-08-04T05:25:24;24.60;76.40
6536;DHT22;34330;52.08032700;5.40923460;2022-08-04T05:27:58;24.10;75.10
6536;DHT22;34330;52.08032700;5.40923460;2022-08-04T05:30:34;24.90;76.90
6536;DHT22;34330;52.08032700;5.40923460;2022-08-04T05:33:08;24.20;76.40
6536;DHT22;34330;52.08032700;5.40923460;2022-08-04T05:35:42;24.20;76.00
6536;DHT22;34330;52.08032700;5.40923460;2022-08-04T05:38:34;24.30;75.60
6536;DHT22;34330;52.08032700;5.40923460;2022-08-04T05:41:03;24.40;75.90
6536;DHT22;34330;52.08032700;5.40923460;2022-08-04T05:43:32;24.40;76.00
6536;DHT22;34330;52.08032700;5.40923460;2022-08-04T05:46:03;25.70;77.40
6536;DHT22;34330;52.08032700;5.40923460;2022-08-04T05:48:31;25.80;77.60
6536;DHT22;34330;52.08032700;5.40923460;2022-08-04T05:51:00;24.60;77.20
6536;DHT22;34330;52.08032700;5.40923460;2022-08-04T05:53:31;24.70;75.90
6536;DHT22;34330;52.08032700;5.40923460;2022-08-04T05:56:01;24.70;76.60
6536;DHT22;34330;52.08032700;5.40923460;2022-08-04T05:58:30;26.80;78.30
6536;DHT22;34330;52.08032700;5.40923460;2022-08-04T06:01:01;24.90;76.60
6536;DHT22;34330;52.08032700;5.40923460;2022-08-04T06:03:30;25.70;77.00
6536;DHT22;34330;52.08032700;5.40923460;2022-08-04T06:05:59;25.00;76.30
6536;DHT22;34330;52.08032700;5.40923460;2022-08-04T06:08:29;25.10;76.50
6536;DHT22;34330;52.08032700;5.40923460;2022-08-04T06:11:02;25.20;76.80
6536;DHT22;34330;52.08032700;5.40923460;2022-08-04T06:13:36;25.30;76.80
6536;DHT22;34330;52.08032700;5.40923460;2022-08-04T06:16:19;25.40;77.00
6536;DHT22;34330;52.08032700;5.40923460;2022-08-04T06:18:59;25.40;76.90
6536;DHT22;34330;52.08032700;5.40923460;2022-08-04T06:21:49;26.90;78.00
6536;DHT22;34330;52.08032700;5.40923460;2022-08-04T06:24:19;25.60;76.60
6536;DHT22;34330;52.08032700;5.40923460;2022-08-04T06:26:48;27.60;77.70
6536;DHT22;34330;52.08032700;5.40923460;2022-08-04T06:29:19;25.80;76.00
6536;DHT22;34330;52.08032700;5.40923460;2022-08-04T06:31:53;25.90;75.80
6536;DHT22;34330;52.08032700;5.40923460;2022-08-04T06:34:45;26.40;76.00
6536;DHT22;34330;52.08032700;5.40923460;2022-08-04T06:37:14;26.10;75.80
6536;DHT22;34330;52.08032700;5.40923460;2022-08-04T06:40:07;26.10;75.80
6536;DHT22;34330;52.08032700;5.40923460;2022-08-04T06:42:56;26.30;75.80
6536;DHT22;34330;52.08032700;5.40923460;2022-08-04T06:45:25;26.30;75.60
6536;DHT22;34330;52.08032700;5.40923460;2022-08-04T06:47:55;26.40;75.30
6536;DHT22;34330;52.08032700;5.40923460;2022-08-04T06:50:24;26.40;75.10
6536;DHT22;34330;52.08032700;5.40923460;2022-08-04T06:53:12;26.50;75.30
6536;DHT22;34330;52.08032700;5.40923460;2022-08-04T06:55:44;26.60;75.00
6536;DHT22;34330;52.08032700;5.40923460;2022-08-04T06:58:13;26.60;75.10
6536;DHT22;34330;52.08032700;5.40923460;2022-08-04T07:00:43;26.60;75.60
6536;DHT22;34330;52.08032700;5.40923460;2022-08-04T07:03:15;26.60;75.90
6536;DHT22;34330;52.08032700;5.40923460;2022-08-04T07:05:46;27.90;77.00
6536;DHT22;34330;52.08032700;5.40923460;2022-08-04T07:08:14;26.80;75.80
6536;DHT22;34330;52.08032700;5.40923460;2022-08-04T07:10:44;27.00;75.80
6536;DHT22;34330;52.08032700;5.40923460;2022-08-04T07:13:12;26.90;75.60
6536;DHT22;34330;52.08032700;5.40923460;2022-08-04T07:15:43;27.30;75.70
6536;DHT22;34330;52.08032700;5.40923460;2022-08-04T07:18:11;27.00;75.40
6536;DHT22;34330;52.08032700;5.40923460;2022-08-04T07:20:42;27.10;74.80
6536;DHT22;34330;52.08032700;5.40923460;2022-08-04T07:23:10;27.20;74.60
6536;DHT22;34330;52.08032700;5.40923460;2022-08-04T07:25:43;26.00;73.00
6536;DHT22;34330;52.08032700;5.40923460;2022-08-04T07:28:36;27.20;74.00
6536;DHT22;34330;52.08032700;5.40923460;2022-08-04T07:31:09;27.30;73.80
6536;DHT22;34330;52.08032700;5.40923460;2022-08-04T07:33:59;27.30;73.40
6536;DHT22;34330;52.08032700;5.40923460;2022-08-04T07:36:51;27.30;73.00
6536;DHT22;34330;52.08032700;5.40923460;2022-08-04T07:39:23;27.30;73.00
6536;DHT22;34330;52.08032700;5.40923460;2022-08-04T07:41:56;27.30;73.10
6536;DHT22;34330;52.08032700;5.40923460;2022-08-04T07:44:26;27.40;72.90
6536;DHT22;34330;52.08032700;5.40923460;2022-08-04T07:46:54;29.20;74.30
6536;DHT22;34330;52.08032700;5.40923460;2022-08-04T07:49:23;27.40;73.00
6536;DHT22;34330;52.08032700;5.40923460;2022-08-04T07:52:14;27.50;72.80
6536;DHT22;34330;52.08032700;5.40923460;2022-08-04T07:54:42;27.50;72.80
6536;DHT22;34330;52.08032700;5.40923460;2022-08-04T07:57:11;27.50;72.60
6536;DHT22;34330;52.08032700;5.40923460;2022-08-04T07:59:59;30.40;74.40
6536;DHT22;34330;52.08032700;5.40923460;2022-08-04T08:02:27;28.70;73.10
6536;DHT22;34330;52.08032700;5.40923460;2022-08-04T08:04:56;27.60;72.60
6536;DHT22;34330;52.08032700;5.40923460;2022-08-04T08:07:25;27.70;72.20
6536;DHT22;34330;52.08032700;5.40923460;2022-08-04T08:09:53;27.70;72.10
6536;DHT22;34330;52.08032700;5.40923460;2022-08-04T08:12:22;27.70;72.00
6536;DHT22;34330;52.08032700;5.40923460;2022-08-04T08:15:11;28.90;72.90
6536;DHT22;34330;52.08032700;5.40923460;2022-08-04T08:17:41;27.80;72.20
6536;DHT22;34330;52.08032700;5.40923460;2022-08-04T08:20:27;29.20;72.80
6536;DHT22;34330;52.08032700;5.40923460;2022-08-04T08:22:59;27.90;72.30
6536;DHT22;34330;52.08032700;5.40923460;2022-08-04T08:25:29;28.00;71.90
6536;DHT22;34330;52.08032700;5.40923460;2022-08-04T08:27:57;28.00;71.70
6536;DHT22;34330;52.08032700;5.40923460;2022-08-04T08:30:26;29.10;71.80
6536;DHT22;34330;52.08032700;5.40923460;2022-08-04T08:32:59;28.20;70.90
6536;DHT22;34330;52.08032700;5.40923460;2022-08-04T08:35:33;30.60;73.30
6536;DHT22;34330;52.08032700;5.40923460;2022-08-04T08:38:37;28.30;71.40
6536;DHT22;34330;52.08032700;5.40923460;2022-08-04T08:41:29;28.40;70.70
6536;DHT22;34330;52.08032700;5.40923460;2022-08-04T08:44:32;28.50;70.60
6536;DHT22;34330;52.08032700;5.40923460;2022-08-04T08:47:19;28.70;69.70
6536;DHT22;34330;52.08032700;5.40923460;2022-08-04T08:50:03;28.80;70.40
6536;DHT22;34330;52.08032700;5.40923460;2022-08-04T08:52:53;28.90;69.10
6536;DHT22;34330;52.08032700;5.40923460;2022-08-04T08:55:39;29.50;69.60
6536;DHT22;34330;52.08032700;5.40923460;2022-08-04T08:58:37;29.20;69.00
6536;DHT22;34330;52.08032700;5.40923460;2022-08-04T09:01:21;29.30;68.80
6536;DHT22;34330;52.08032700;5.40923460;2022-08-04T09:04:22;29.40;67.90
6536;DHT22;34330;52.08032700;5.40923460;2022-08-04T09:07:19;29.50;67.50
6536;DHT22;34330;52.08032700;5.40923460;2022-08-04T09:10:07;29.60;67.20
6536;DHT22;34330;52.08032700;5.40923460;2022-08-04T09:12:45;29.70;67.40
6536;DHT22;34330;52.08032700;5.40923460;2022-08-04T09:15:17;29.80;66.90
6536;DHT22;34330;52.08032700;5.40923460;2022-08-04T09:17:50;29.90;67.10
6536;DHT22;34330;52.08032700;5.40923460;2022-08-04T09:20:27;30.00;66.40
6536;DHT22;34330;52.08032700;5.40923460;2022-08-04T09:23:05;30.20;67.10
6536;DHT22;34330;52.08032700;5.40923460;2022-08-04T09:25:39;30.30;66.50
6536;DHT22;34330;52.08032700;5.40923460;2022-08-04T09:28:17;30.40;66.00
6536;DHT22;34330;52.08032700;5.40923460;2022-08-04T09:31:10;30.50;65.20
6536;DHT22;34330;52.08032700;5.40923460;2022-08-04T09:33:46;30.60;65.20
6536;DHT22;34330;52.08032700;5.40923460;2022-08-04T09:36:26;33.00;66.90
6536;DHT22;34330;52.08032700;5.40923460;2022-08-04T09:39:17;30.80;65.40
6536;DHT22;34330;52.08032700;5.40923460;2022-08-04T09:41:59;32.00;65.90
6536;DHT22;34330;52.08032700;5.40923460;2022-08-04T09:44:40;30.90;65.00
6536;DHT22;34330;52.08032700;5.40923460;2022-08-04T09:47:32;31.00;65.30
6536;DHT22;34330;52.08032700;5.40923460;2022-08-04T09:50:20;31.10;64.70
6536;DHT22;34330;52.08032700;5.40923460;2022-08-04T09:52:57;31.20;63.30
6536;DHT22;34330;52.08032700;5.40923460;2022-08-04T09:55:37;31.30;63.30
6536;DHT22;34330;52.08032700;5.40923460;2022-08-04T09:58:32;31.30;62.60
6536;DHT22;34330;52.08032700;5.40923460;2022-08-04T10:01:09;31.40;62.40
6536;DHT22;34330;52.08032700;5.40923460;2022-08-04T10:03:43;31.50;61.70
6536;DHT22;34330;52.08032700;5.40923460;2022-08-04T10:06:31;31.60;61.20
6536;DHT22;34330;52.08032700;5.40923460;2022-08-04T10:09:11;31.70;60.80
6536;DHT22;34330;52.08032700;5.40923460;2022-08-04T10:11:52;31.70;60.80
6536;DHT22;34330;52.08032700;5.40923460;2022-08-04T10:14:37;31.80;61.30
6536;DHT22;34330;52.08032700;5.40923460;2022-08-04T10:20:26;31.80;60.00
6536;DHT22;34330;52.08032700;5.40923460;2022-08-04T10:23:19;31.80;60.00
6536;DHT22;34330;52.08032700;5.40923460;2022-08-04T10:26:01;31.80;59.50
6536;DHT22;34330;52.08032700;5.40923460;2022-08-04T10:28:40;31.70;59.20
6536;DHT22;34330;52.08032700;5.40923460;2022-08-04T10:31:15;31.60;59.00
6536;DHT22;34330;52.08032700;5.40923460;2022-08-04T10:33:49;31.50;58.90
6536;DHT22;34330;52.08032700;5.40923460;2022-08-04T10:36:22;31.20;58.60
6536;DHT22;34330;52.08032700;5.40923460;2022-08-04T10:38:59;31.20;59.50
6536;DHT22;34330;52.08032700;5.40923460;2022-08-04T10:41:33;31.20;59.30
6536;DHT22;34330;52.08032700;5.40923460;2022-08-04T10:44:12;31.20;59.40
6536;DHT22;34330;52.08032700;5.40923460;2022-08-04T10:46:46;31.00;59.10
6536;DHT22;34330;52.08032700;5.40923460;2022-08-04T10:49:21;31.00;59.00
6536;DHT22;34330;52.08032700;5.40923460;2022-08-04T10:51:54;30.90;58.80
6536;DHT22;34330;52.08032700;5.40923460;2022-08-04T10:54:30;30.90;59.30
6536;DHT22;34330;52.08032700;5.40923460;2022-08-04T10:57:06;30.70;58.90
6536;DHT22;34330;52.08032700;5.40923460;2022-08-04T10:59:39;30.60;59.20
6536;DHT22;34330;52.08032700;5.40923460;2022-08-04T11:02:22;30.40;59.20
6536;DHT22;34330;52.08032700;5.40923460;2022-08-04T11:05:11;30.40;59.50
6536;DHT22;34330;52.08032700;5.40923460;2022-08-04T11:07:44;30.30;60.00
6536;DHT22;34330;52.08032700;5.40923460;2022-08-04T11:10:16;27.30;58.40
6536;DHT22;34330;52.08032700;5.40923460;2022-08-04T11:12:54;30.20;62.30
6536;DHT22;34330;52.08032700;5.40923460;2022-08-04T11:15:27;30.10;63.30
6536;DHT22;34330;52.08032700;5.40923460;2022-08-04T11:18:04;30.00;65.20
6536;DHT22;34330;52.08032700;5.40923460;2022-08-04T11:20:49;29.90;66.50
6536;DHT22;34330;52.08032700;5.40923460;2022-08-04T11:23:27;29.80;65.60
6536;DHT22;34330;52.08032700;5.40923460;2022-08-04T11:26:01;29.80;66.00
6536;DHT22;34330;52.08032700;5.40923460;2022-08-04T11:28:38;31.40;67.10
6536;DHT22;34330;52.08032700;5.40923460;2022-08-04T11:31:12;29.80;66.10
6536;DHT22;34330;52.08032700;5.40923460;2022-08-04T11:33:45;29.80;65.90
6536;DHT22;34330;52.08032700;5.40923460;2022-08-04T11:36:19;29.80;65.80
6536;DHT22;34330;52.08032700;5.40923460;2022-08-04T11:38:55;29.70;65.50
6536;DHT22;34330;52.08032700;5.40923460;2022-08-04T11:41:37;29.70;65.70
6536;DHT22;34330;52.08032700;5.40923460;2022-08-04T11:44:10;29.80;65.20
6536;DHT22;34330;52.08032700;5.40923460;2022-08-04T11:46:42;29.80;66.40
6536;DHT22;34330;52.08032700;5.40923460;2022-08-04T11:49:25;29.80;64.90
6536;DHT22;34330;52.08032700;5.40923460;2022-08-04T11:51:56;30.60;65.80
6536;DHT22;34330;52.08032700;5.40923460;2022-08-04T11:54:26;29.90;62.10
6536;DHT22;34330;52.08032700;5.40923460;2022-08-04T11:56:55;29.90;62.50
6536;DHT22;34330;52.08032700;5.40923460;2022-08-04T11:59:23;29.90;62.50
6536;DHT22;34330;52.08032700;5.40923460;2022-08-04T12:02:05;29.90;63.70
6536;DHT22;34330;52.08032700;5.40923460;2022-08-04T12:04:44;32.90;65.70
6536;DHT22;34330;52.08032700;5.40923460;2022-08-04T12:07:19;30.20;63.50
6536;DHT22;34330;52.08032700;5.40923460;2022-08-04T12:10:11;30.30;62.00
6536;DHT22;34330;52.08032700;5.40923460;2022-08-04T12:12:44;30.40;60.90
6536;DHT22;34330;52.08032700;5.40923460;2022-08-04T12:15:19;30.60;61.00
6536;DHT22;34330;52.08032700;5.40923460;2022-08-04T12:17:56;30.70;60.90
6536;DHT22;34330;52.08032700;5.40923460;2022-08-04T12:20:33;30.70;59.60
6536;DHT22;34330;52.08032700;5.40923460;2022-08-04T12:23:14;30.90;60.40
6536;DHT22;34330;52.08032700;5.40923460;2022-08-04T12:25:47;33.50;60.70
6536;DHT22;34330;52.08032700;5.40923460;2022-08-04T12:28:20;31.10;59.80
6536;DHT22;34330;52.08032700;5.40923460;2022-08-04T12:31:08;31.20;59.10
6536;DHT22;34330;52.08032700;5.40923460;2022-08-04T12:34:11;31.20;58.00
6536;DHT22;34330;52.08032700;5.40923460;2022-08-04T12:36:46;31.30;56.70
6536;DHT22;34330;52.08032700;5.40923460;2022-08-04T12:39:21;31.40;56.80
6536;DHT22;34330;52.08032700;5.40923460;2022-08-04T12:42:00;31.40;55.00
6536;DHT22;34330;52.08032700;5.40923460;2022-08-04T12:44:32;33.70;57.90
6536;DHT22;34330;52.08032700;5.40923460;2022-08-04T12:47:06;31.60;56.60
6536;DHT22;34330;52.08032700;5.40923460;2022-08-04T12:49:58;31.70;56.80
6536;DHT22;34330;52.08032700;5.40923460;2022-08-04T12:52:30;31.80;56.30
6536;DHT22;34330;52.08032700;5.40923460;2022-08-04T12:55:21;31.90;55.90
6536;DHT22;34330;52.08032700;5.40923460;2022-08-04T12:57:52;32.10;55.80
6536;DHT22;34330;52.08032700;5.40923460;2022-08-04T13:00:27;32.20;54.60
6536;DHT22;34330;52.08032700;5.40923460;2022-08-04T13:03:05;32.30;54.50
6536;DHT22;34330;52.08032700;5.40923460;2022-08-04T13:05:38;32.30;54.50
6536;DHT22;34330;52.08032700;5.40923460;2022-08-04T13:08:08;32.90;54.60
6536;DHT22;34330;52.08032700;5.40923460;2022-08-04T13:10:38;32.50;54.00
6536;DHT22;34330;52.08032700;5.40923460;2022-08-04T13:13:15;32.50;54.10
6536;DHT22;34330;52.08032700;5.40923460;2022-08-04T13:15:54;32.60;54.10
6536;DHT22;34330;52.08032700;5.40923460;2022-08-04T13:18:24;32.60;53.00
6536;DHT22;34330;52.08032700;5.40923460;2022-08-04T13:21:09;32.70;53.30
6536;DHT22;34330;52.08032700;5.40923460;2022-08-04T13:23:50;34.30;54.10
6536;DHT22;34330;52.08032700;5.40923460;2022-08-04T13:26:44;32.80;53.30
6536;DHT22;34330;52.08032700;5.40923460;2022-08-04T13:29:24;32.90;54.40
6536;DHT22;34330;52.08032700;5.40923460;2022-08-04T13:32:16;33.00;53.40
6536;DHT22;34330;52.08032700;5.40923460;2022-08-04T13:34:47;33.20;54.10
6536;DHT22;34330;52.08032700;5.40923460;2022-08-04T13:37:20;33.30;53.20
6536;DHT22;34330;52.08032700;5.40923460;2022-08-04T13:39:52;33.40;52.70
6536;DHT22;34330;52.08032700;5.40923460;2022-08-04T13:42:23;33.40;52.30
6536;DHT22;34330;52.08032700;5.40923460;2022-08-04T13:44:56;33.40;52.10
6536;DHT22;34330;52.08032700;5.40923460;2022-08-04T13:47:27;35.10;52.30
6536;DHT22;34330;52.08032700;5.40923460;2022-08-04T13:50:17;35.30;52.90
6536;DHT22;34330;52.08032700;5.40923460;2022-08-04T13:52:51;33.50;51.50
6536;DHT22;34330;52.08032700;5.40923460;2022-08-04T13:55:22;33.50;51.50
6536;DHT22;34330;52.08032700;5.40923460;2022-08-04T13:57:54;36.20;52.40
6536;DHT22;34330;52.08032700;5.40923460;2022-08-04T14:00:25;33.50;50.80
6536;DHT22;34330;52.08032700;5.40923460;2022-08-04T14:03:00;33.70;49.80
6536;DHT22;34330;52.08032700;5.40923460;2022-08-04T14:05:29;36.50;51.60
6536;DHT22;34330;52.08032700;5.40923460;2022-08-04T14:08:21;33.70;49.20
6536;DHT22;34330;52.08032700;5.40923460;2022-08-04T14:10:53;33.70;48.70
6536;DHT22;34330;52.08032700;5.40923460;2022-08-04T14:13:29;33.70;48.30
6536;DHT22;34330;52.08032700;5.40923460;2022-08-04T14:16:18;33.70;48.50
6536;DHT22;34330;52.08032700;5.40923460;2022-08-04T14:18:47;33.60;48.80
6536;DHT22;34330;52.08032700;5.40923460;2022-08-04T14:21:23;33.60;48.30
6536;DHT22;34330;52.08032700;5.40923460;2022-08-04T14:23:53;33.50;48.30
6536;DHT22;34330;52.08032700;5.40923460;2022-08-04T14:26:25;33.60;48.60
6536;DHT22;34330;52.08032700;5.40923460;2022-08-04T14:29:10;33.40;48.60
6536;DHT22;34330;52.08032700;5.40923460;2022-08-04T14:32:00;33.40;48.10
6536;DHT22;34330;52.08032700;5.40923460;2022-08-04T14:34:39;33.40;49.10
6536;DHT22;34330;52.08032700;5.40923460;2022-08-04T14:37:12;33.30;48.00
6536;DHT22;34330;52.08032700;5.40923460;2022-08-04T14:39:46;33.30;48.50
6536;DHT22;34330;52.08032700;5.40923460;2022-08-04T14:42:41;33.30;48.50
6536;DHT22;34330;52.08032700;5.40923460;2022-08-04T14:45:09;33.20;49.00
6536;DHT22;34330;52.08032700;5.40923460;2022-08-04T14:47:41;33.20;48.50
6536;DHT22;34330;52.08032700;5.40923460;2022-08-04T14:50:19;34.00;48.90
6536;DHT22;34330;52.08032700;5.40923460;2022-08-04T14:53:03;33.70;49.10
6536;DHT22;34330;52.08032700;5.40923460;2022-08-04T14:55:32;33.30;47.90
6536;DHT22;34330;52.08032700;5.40923460;2022-08-04T14:58:00;35.20;49.50
6536;DHT22;34330;52.08032700;5.40923460;2022-08-04T15:00:48;33.20;48.10
6536;DHT22;34330;52.08032700;5.40923460;2022-08-04T15:03:19;33.20;48.20